createdAt,value
2023-09-27T00:00:49.859Z,10.10
2023-09-27T00:01:52.116Z,8.25
2023-09-27T00:02:54.488Z,9.93
2023-09-27T00:03:57.068Z,15.73
2023-09-27T00:04:59.427Z,6.18
2023-09-27T00:06:01.848Z,8.73
2023-09-27T00:07:04.156Z,8.43
2023-09-27T00:08:07.682Z,7.82
2023-09-27T00:09:10.183Z,11.52
2023-09-27T00:10:12.632Z,9.25
2023-09-27T00:11:15.349Z,11.90
2023-09-27T00:12:17.670Z,8.27
2023-09-27T00:13:20.057Z,7.13
2023-09-27T00:14:22.320Z,8.50
2023-09-27T00:15:24.842Z,6.53
2023-09-27T00:16:27.178Z,8.80
2023-09-27T00:17:30.049Z,10.15
2023-09-27T00:18:32.555Z,10.25
2023-09-27T00:19:34.937Z,9.52
2023-09-27T00:20:37.226Z,7.28
2023-09-27T00:21:39.662Z,7.60
2023-09-27T00:22:41.965Z,8.07
2023-09-27T00:23:44.228Z,7.10
2023-09-27T00:24:46.515Z,6.43
2023-09-27T00:25:48.811Z,7.95
2023-09-27T00:26:51.052Z,6.05
2023-09-27T00:27:53.300Z,8.32
2023-09-27T00:28:56.900Z,9.45
2023-09-27T00:29:59.194Z,11.23
2023-09-27T00:31:01.496Z,6.68
2023-09-27T00:32:04.260Z,12.50
2023-09-27T00:33:06.578Z,9.27
2023-09-27T00:34:08.814Z,7.88
2023-09-27T00:35:15.747Z,8.35
2023-09-27T00:36:18.276Z,9.70
2023-09-27T00:37:20.711Z,8.65
2023-09-27T00:38:23.104Z,8.07
2023-09-27T00:39:25.453Z,10.23
2023-09-27T00:40:27.820Z,7.53
2023-09-27T00:41:30.715Z,9.10
2023-09-27T00:42:33.007Z,10.50
2023-09-27T00:43:36.063Z,8.35
2023-09-27T00:44:38.342Z,6.95
2023-09-27T00:45:40.918Z,7.53
2023-09-27T00:46:44.917Z,8.65
2023-09-27T00:47:49.718Z,10.52
2023-09-27T00:48:52.387Z,7.07
2023-09-27T00:49:54.902Z,8.98
2023-09-27T00:50:57.894Z,9.02
2023-09-27T00:52:00.954Z,6.47
2023-09-27T00:53:03.704Z,6.32
2023-09-27T00:54:06.790Z,5.50
2023-09-27T00:55:12.169Z,9.68
2023-09-27T00:56:14.823Z,7.93
2023-09-27T00:57:17.502Z,7.90
2023-09-27T00:58:21.179Z,9.82
2023-09-27T00:59:24.150Z,5.40
2023-09-27T01:00:26.504Z,9.82
2023-09-27T01:01:28.863Z,6.38
2023-09-27T01:02:31.549Z,9.38
2023-09-27T01:03:34.233Z,6.07
2023-09-27T01:04:36.641Z,8.32
2023-09-27T01:05:38.967Z,7.93
2023-09-27T01:06:42.761Z,11.10
2023-09-27T01:07:45.247Z,8.30
2023-09-27T01:08:47.539Z,7.13
2023-09-27T01:09:49.828Z,6.90
2023-09-27T01:10:52.119Z,5.68
2023-09-27T01:11:54.710Z,5.50
2023-09-27T01:12:57.159Z,7.72
2023-09-27T01:13:59.705Z,9.98
2023-09-27T01:15:02.719Z,5.97
2023-09-27T01:16:05.250Z,7.53
2023-09-27T01:17:11.350Z,6.32
2023-09-27T01:18:13.678Z,5.60
2023-09-27T01:19:16.021Z,6.93
2023-09-27T01:20:18.329Z,8.13
2023-09-27T01:21:21.019Z,11.30
2023-09-27T01:22:23.426Z,7.93
2023-09-27T01:23:25.965Z,7.15
2023-09-27T01:24:31.061Z,8.05
2023-09-27T01:25:35.815Z,6.53
2023-09-27T01:26:38.796Z,11.25
2023-09-27T01:27:41.885Z,7.07
2023-09-27T01:28:46.327Z,9.40
2023-09-27T01:29:48.654Z,7.28
2023-09-27T01:30:51.113Z,8.27
2023-09-27T01:31:53.489Z,6.93
2023-09-27T01:32:56.236Z,6.95
2023-09-27T01:33:58.484Z,8.65
2023-09-27T01:35:01.023Z,11.75
2023-09-27T01:36:04.689Z,6.90
2023-09-27T01:37:08.766Z,6.72
2023-09-27T01:38:13.708Z,10.90
2023-09-27T01:39:16.014Z,6.68
2023-09-27T01:40:23.536Z,6.38
2023-09-27T01:41:26.030Z,7.78
2023-09-27T01:42:28.332Z,6.88
2023-09-27T01:43:30.628Z,7.50
2023-09-27T01:44:32.907Z,6.75
2023-09-27T01:45:35.490Z,11.48
2023-09-27T01:46:37.714Z,6.30
2023-09-27T01:47:40.616Z,5.85
2023-09-27T01:48:42.938Z,9.32
2023-09-27T01:49:45.160Z,8.63
2023-09-27T01:50:47.420Z,5.95
2023-09-27T01:51:50.336Z,7.07
2023-09-27T01:52:53.211Z,8.88
2023-09-27T01:53:55.447Z,10.88
2023-09-27T01:54:57.724Z,6.75
2023-09-27T01:56:00.000Z,7.70
2023-09-27T01:57:02.252Z,8.98
2023-09-27T01:58:04.983Z,9.93
2023-09-27T01:59:07.452Z,8.52
2023-09-27T02:02:07.895Z,6.90
2023-09-27T02:03:10.432Z,8.00
2023-09-27T02:04:12.793Z,11.18
2023-09-27T02:05:15.123Z,7.28
2023-09-27T02:06:17.484Z,6.07
2023-09-27T02:07:20.122Z,8.20
2023-09-27T02:08:22.469Z,10.55
2023-09-27T02:09:24.830Z,7.38
2023-09-27T02:10:27.217Z,10.15
2023-09-27T02:11:29.452Z,10.35
2023-09-27T02:12:31.686Z,8.32
2023-09-27T02:13:33.959Z,9.32
2023-09-27T02:14:36.289Z,8.98
2023-09-27T02:15:38.555Z,6.35
2023-09-27T02:16:42.493Z,6.82
2023-09-27T02:17:45.282Z,8.40
2023-09-27T02:18:47.670Z,11.05
2023-09-27T02:19:49.840Z,6.75
2023-09-27T02:20:52.218Z,12.23
2023-09-27T02:21:54.388Z,7.03
2023-09-27T02:22:57.382Z,8.55
2023-09-27T02:23:59.630Z,9.75
2023-09-27T02:25:02.243Z,8.30
2023-09-27T02:26:06.954Z,5.82
2023-09-27T02:27:11.842Z,7.38
2023-09-27T02:28:14.025Z,7.53
2023-09-27T02:29:16.738Z,9.35
2023-09-27T02:30:19.956Z,8.10
2023-09-27T02:31:22.284Z,8.80
2023-09-27T02:32:24.594Z,8.18
2023-09-27T02:33:28.826Z,8.60
2023-09-27T02:34:31.618Z,7.28
2023-09-27T02:35:33.884Z,7.95
2023-09-27T02:36:36.157Z,8.00
2023-09-27T02:37:42.800Z,6.82
2023-09-27T02:38:45.211Z,8.40
2023-09-27T02:39:47.457Z,7.43
2023-09-27T02:40:49.710Z,8.70
2023-09-27T02:41:52.411Z,12.05
2023-09-27T02:42:54.835Z,8.15
2023-09-27T02:43:57.275Z,11.05
2023-09-27T02:44:59.596Z,10.20
2023-09-27T02:46:02.005Z,11.38
2023-09-27T02:47:04.454Z,9.70
2023-09-27T02:48:06.909Z,10.90
2023-09-27T02:49:09.176Z,13.43
2023-09-27T02:50:12.656Z,11.18
2023-09-27T02:51:16.597Z,10.25
2023-09-27T02:52:18.835Z,11.00
2023-09-27T02:53:21.515Z,12.30
2023-09-27T02:54:24.074Z,14.68
2023-09-27T02:55:27.438Z,9.70
2023-09-27T02:56:29.964Z,11.88
2023-09-27T02:57:32.731Z,9.93
2023-09-27T02:58:35.755Z,11.23
2023-09-27T02:59:38.100Z,10.32
2023-09-27T03:00:42.078Z,6.90
2023-09-27T03:01:44.466Z,9.98
2023-09-27T03:02:46.958Z,7.05
2023-09-27T03:03:49.896Z,9.93
2023-09-27T03:04:52.254Z,7.35
2023-09-27T03:05:54.626Z,8.98
2023-09-27T03:06:56.953Z,9.02
2023-09-27T03:07:59.341Z,8.18
2023-09-27T03:09:01.752Z,16.45
2023-09-27T03:10:05.495Z,9.07
2023-09-27T03:11:08.415Z,12.85
2023-09-27T03:12:12.381Z,9.88
2023-09-27T03:13:15.669Z,12.60
2023-09-27T03:14:17.914Z,7.38
2023-09-27T03:15:20.336Z,10.73
2023-09-27T03:16:23.017Z,12.93
2023-09-27T03:17:25.315Z,7.53
2023-09-27T03:18:28.449Z,8.85
2023-09-27T03:19:30.674Z,10.48
2023-09-27T03:20:33.777Z,8.15
2023-09-27T03:21:36.806Z,10.07
2023-09-27T03:22:39.225Z,8.75
2023-09-27T03:23:41.500Z,9.73
2023-09-27T03:24:43.863Z,9.30
2023-09-27T03:25:48.049Z,8.88
2023-09-27T03:26:50.407Z,10.98
2023-09-27T03:27:53.217Z,12.27
2023-09-27T03:28:55.833Z,9.63
2023-09-27T03:29:59.207Z,9.32
2023-09-27T03:31:03.489Z,12.15
2023-09-27T03:32:06.641Z,9.02
2023-09-27T03:33:08.949Z,8.75
2023-09-27T03:34:11.418Z,10.10
2023-09-27T03:35:14.210Z,9.02
2023-09-27T03:36:16.442Z,11.02
2023-09-27T03:37:19.159Z,7.97
2023-09-27T03:38:22.130Z,7.03
2023-09-27T03:39:24.517Z,6.75
2023-09-27T03:40:26.752Z,7.30
2023-09-27T03:41:28.982Z,7.65
2023-09-27T03:42:31.439Z,8.60
2023-09-27T03:43:33.704Z,8.95
2023-09-27T03:44:36.870Z,7.70
2023-09-27T03:45:39.274Z,11.02
2023-09-27T03:46:44.758Z,7.30
2023-09-27T03:47:48.482Z,9.88
2023-09-27T03:48:54.578Z,7.22
2023-09-27T03:49:57.743Z,9.27
2023-09-27T03:51:01.385Z,8.68
2023-09-27T03:52:05.483Z,9.55
2023-09-27T03:53:08.495Z,11.68
2023-09-27T03:54:10.749Z,12.23
2023-09-27T03:55:13.696Z,10.25
2023-09-27T03:56:16.095Z,9.82
2023-09-27T03:57:18.989Z,9.13
2023-09-27T03:58:21.931Z,7.43
2023-09-27T03:59:24.241Z,9.00
2023-09-27T04:00:27.484Z,9.32
2023-09-27T04:01:30.194Z,8.70
2023-09-27T04:02:32.870Z,7.70
2023-09-27T04:03:35.232Z,9.70
2023-09-27T04:04:37.589Z,10.27
2023-09-27T04:05:39.994Z,7.90
2023-09-27T04:06:42.364Z,10.32
2023-09-27T04:07:44.678Z,11.20
2023-09-27T04:08:47.097Z,9.05
2023-09-27T04:09:49.344Z,12.00
2023-09-27T04:10:51.585Z,9.73
2023-09-27T04:11:54.060Z,11.10
2023-09-27T04:12:56.694Z,9.88
2023-09-27T04:13:58.985Z,13.20
2023-09-27T04:15:01.701Z,12.98
2023-09-27T04:16:04.840Z,9.68
2023-09-27T04:17:07.252Z,8.98
2023-09-27T04:18:09.512Z,11.13
2023-09-27T04:19:11.910Z,9.80
2023-09-27T04:20:20.424Z,7.38
2023-09-27T04:21:22.834Z,7.78
2023-09-27T04:22:25.277Z,7.57
2023-09-27T04:23:27.705Z,7.82
2023-09-27T04:24:29.895Z,9.55
2023-09-27T04:25:32.074Z,11.43
2023-09-27T04:26:34.420Z,10.15
2023-09-27T04:27:36.840Z,8.52
2023-09-27T04:28:39.100Z,8.95
2023-09-27T04:29:41.331Z,8.70
2023-09-27T04:30:43.626Z,8.55
2023-09-27T04:31:46.006Z,10.05
2023-09-27T04:32:53.429Z,9.38
2023-09-27T04:33:55.903Z,10.35
2023-09-27T04:34:59.750Z,9.57
2023-09-27T04:36:02.041Z,11.38
2023-09-27T04:37:04.339Z,8.93
2023-09-27T04:38:07.092Z,10.20
2023-09-27T04:39:18.058Z,9.63
2023-09-27T04:40:20.312Z,13.13
2023-09-27T04:41:22.753Z,10.05
2023-09-27T04:42:25.068Z,9.50
2023-09-27T04:43:27.302Z,10.32
2023-09-27T04:44:29.745Z,10.40
2023-09-27T04:45:32.096Z,9.85
2023-09-27T04:46:34.463Z,11.57
2023-09-27T04:47:37.216Z,9.55
2023-09-27T04:48:39.616Z,7.53
2023-09-27T04:49:41.806Z,10.13
2023-09-27T04:50:44.027Z,11.27
2023-09-27T04:51:46.340Z,10.10
2023-09-27T04:52:48.591Z,12.75
2023-09-27T04:53:50.851Z,10.98
2023-09-27T04:54:59.782Z,12.05
2023-09-27T04:56:03.419Z,11.13
2023-09-27T04:57:05.650Z,11.18
2023-09-27T04:58:07.914Z,8.32
2023-09-27T04:59:10.166Z,10.40
2023-09-27T05:00:19.796Z,8.35
2023-09-27T05:01:23.370Z,9.90
2023-09-27T05:02:26.970Z,11.95
2023-09-27T05:03:29.304Z,10.13
2023-09-27T05:04:31.639Z,10.10
2023-09-27T05:05:33.962Z,8.27
2023-09-27T05:06:36.487Z,11.80
2023-09-27T05:07:39.931Z,9.63
2023-09-27T05:08:42.206Z,11.27
2023-09-27T05:09:44.434Z,14.18
2023-09-27T05:10:46.674Z,9.55
2023-09-27T05:11:48.912Z,11.15
2023-09-27T05:12:51.321Z,8.05
2023-09-27T05:13:53.871Z,10.27
2023-09-27T05:14:58.809Z,9.40
2023-09-27T05:16:01.135Z,12.13
2023-09-27T05:17:03.529Z,10.35
2023-09-27T05:18:05.951Z,9.70
2023-09-27T05:19:08.234Z,12.00
2023-09-27T05:20:14.553Z,8.80
2023-09-27T05:21:17.578Z,11.70
2023-09-27T05:22:20.406Z,11.18
2023-09-27T05:23:22.693Z,10.68
2023-09-27T05:24:25.312Z,9.40
2023-09-27T05:25:27.567Z,10.55
2023-09-27T05:26:29.768Z,8.65
2023-09-27T05:27:32.082Z,13.40
2023-09-27T05:28:34.766Z,12.85
2023-09-27T05:29:37.166Z,11.77
2023-09-27T05:30:39.590Z,15.73
2023-09-27T05:31:42.651Z,15.88
2023-09-27T05:32:44.959Z,11.18
2023-09-27T05:33:47.444Z,11.10
2023-09-27T05:34:49.621Z,15.60
2023-09-27T05:35:51.955Z,15.00
2023-09-27T05:36:54.187Z,14.40
2023-09-27T05:37:56.793Z,12.15
2023-09-27T05:38:59.137Z,12.77
2023-09-27T05:40:05.209Z,17.83
2023-09-27T05:41:07.427Z,15.25
2023-09-27T05:42:09.706Z,14.38
2023-09-27T05:43:12.143Z,13.00
2023-09-27T05:44:14.472Z,10.57
2023-09-27T05:45:16.841Z,12.75
2023-09-27T05:46:19.430Z,12.90
2023-09-27T05:47:21.769Z,10.02
2023-09-27T05:48:24.156Z,12.93
2023-09-27T05:49:26.920Z,11.70
2023-09-27T05:50:29.143Z,15.48
2023-09-27T05:51:31.726Z,10.98
2023-09-27T05:52:35.560Z,11.00
2023-09-27T05:53:37.870Z,9.43
2023-09-27T05:54:40.234Z,10.57
2023-09-27T05:55:43.256Z,11.68
2023-09-27T05:56:47.044Z,10.52
2023-09-27T05:58:53.172Z,13.13
2023-09-27T05:59:55.732Z,9.70
2023-09-27T06:00:58.286Z,12.30
2023-09-27T06:02:00.592Z,13.43
2023-09-27T06:03:02.931Z,10.02
2023-09-27T06:04:05.566Z,11.27
2023-09-27T06:05:08.606Z,13.18
2023-09-27T06:06:10.807Z,12.25
2023-09-27T06:07:15.499Z,14.25
2023-09-27T06:08:17.706Z,15.52
2023-09-27T06:09:20.054Z,12.10
2023-09-27T06:10:23.341Z,11.75
2023-09-27T06:11:26.023Z,10.00
2023-09-27T06:12:28.381Z,11.13
2023-09-27T06:13:30.706Z,10.18
2023-09-27T06:14:32.995Z,14.02
2023-09-27T06:15:35.775Z,9.63
2023-09-27T06:16:41.181Z,16.83
2023-09-27T06:17:44.412Z,12.68
2023-09-27T06:18:46.974Z,12.13
2023-09-27T06:19:50.113Z,13.85
2023-09-27T06:20:53.395Z,12.02
2023-09-27T06:21:55.668Z,12.20
2023-09-27T06:23:01.122Z,19.30
2023-09-27T06:24:04.212Z,14.35
2023-09-27T06:25:07.185Z,11.68
2023-09-27T06:26:10.362Z,12.93
2023-09-27T06:27:13.209Z,12.57
2023-09-27T06:28:15.610Z,12.55
2023-09-27T06:29:20.973Z,15.77
2023-09-27T06:30:27.117Z,12.68
2023-09-27T06:31:30.231Z,13.18
2023-09-27T06:32:32.846Z,14.23
2023-09-27T06:33:40.617Z,11.25
2023-09-27T06:34:44.373Z,15.85
2023-09-27T06:35:47.035Z,11.82
2023-09-27T06:36:50.231Z,14.02
2023-09-27T06:37:52.714Z,15.63
2023-09-27T06:38:55.601Z,14.32
2023-09-27T06:39:58.044Z,14.95
2023-09-27T06:41:00.286Z,17.45
2023-09-27T06:42:03.573Z,15.95
2023-09-27T06:43:11.641Z,12.70
2023-09-27T06:44:14.973Z,15.65
2023-09-27T06:45:17.873Z,14.35
2023-09-27T06:46:20.699Z,14.75
2023-09-27T06:47:22.965Z,15.18
2023-09-27T06:48:29.138Z,16.48
2023-09-27T06:49:31.980Z,17.40
2023-09-27T06:50:34.451Z,18.38
2023-09-27T06:51:37.098Z,12.55
2023-09-27T06:52:41.011Z,13.00
2023-09-27T06:53:43.933Z,17.23
2023-09-27T06:54:46.871Z,17.77
2023-09-27T06:55:50.528Z,14.30
2023-09-27T06:56:52.725Z,14.05
2023-09-27T06:57:55.334Z,15.00
2023-09-27T06:58:57.880Z,14.13
2023-09-27T07:00:00.040Z,15.18
2023-09-27T07:01:02.387Z,14.30
2023-09-27T07:02:04.745Z,14.30
2023-09-27T07:03:07.993Z,16.25
2023-09-27T07:04:10.454Z,15.05
2023-09-27T07:05:13.080Z,17.65
2023-09-27T07:06:15.460Z,13.52
2023-09-27T07:07:17.702Z,13.88
2023-09-27T07:08:20.920Z,14.57
2023-09-27T07:09:23.766Z,12.82
2023-09-27T07:10:26.152Z,16.17
2023-09-27T07:11:29.206Z,12.95
2023-09-27T07:12:32.011Z,14.95
2023-09-27T07:13:34.956Z,15.65
2023-09-27T07:14:37.355Z,15.05
2023-09-27T07:15:39.837Z,14.75
2023-09-27T07:16:54.788Z,14.80
2023-09-27T07:18:04.391Z,15.73
2023-09-27T07:19:06.792Z,15.65
2023-09-27T07:20:25.568Z,15.32
2023-09-27T07:21:29.258Z,12.43
2023-09-27T07:22:32.468Z,11.77
2023-09-27T07:23:34.837Z,14.48
2023-09-27T07:24:37.308Z,13.98
2023-09-27T07:25:39.555Z,14.05
2023-09-27T07:26:47.114Z,15.43
2023-09-27T07:27:54.233Z,12.48
2023-09-27T07:28:57.215Z,13.88
2023-09-27T07:29:59.534Z,12.82
2023-09-27T07:31:01.946Z,10.50
2023-09-27T07:32:05.694Z,12.13
2023-09-27T07:33:10.220Z,12.38
2023-09-27T07:34:12.517Z,11.85
2023-09-27T07:35:19.382Z,9.93
2023-09-27T07:36:25.266Z,10.77
2023-09-27T07:37:27.556Z,10.88
2023-09-27T07:38:29.772Z,12.88
2023-09-27T07:39:33.336Z,10.25
2023-09-27T07:40:36.356Z,8.75
2023-09-27T07:41:39.086Z,12.82
2023-09-27T07:42:43.258Z,12.38
2023-09-27T07:43:45.641Z,12.30
2023-09-27T07:44:47.855Z,9.98
2023-09-27T07:45:50.076Z,8.82
2023-09-27T07:46:52.484Z,7.10
2023-09-27T07:47:55.844Z,10.32
2023-09-27T07:48:58.220Z,9.00
2023-09-27T07:50:00.576Z,8.10
2023-09-27T07:51:10.273Z,10.35
2023-09-27T07:52:12.505Z,8.48
2023-09-27T07:53:15.042Z,9.10
2023-09-27T07:54:17.340Z,8.35
2023-09-27T07:55:22.127Z,9.13
2023-09-27T07:56:29.677Z,9.20
2023-09-27T07:57:32.114Z,11.23
2023-09-27T07:58:34.747Z,10.30
2023-09-27T07:59:37.015Z,13.55
2023-09-27T08:00:41.360Z,16.38
2023-09-27T08:01:43.713Z,8.10
2023-09-27T08:02:47.146Z,8.73
2023-09-27T08:03:52.718Z,11.82
2023-09-27T08:04:56.366Z,10.10
2023-09-27T08:05:58.547Z,10.80
2023-09-27T08:07:00.788Z,17.40
2023-09-27T08:08:03.246Z,8.32
2023-09-27T08:09:07.358Z,8.52
2023-09-27T08:10:21.379Z,7.93
2023-09-27T08:11:24.432Z,12.48
2023-09-27T08:12:29.030Z,9.55
2023-09-27T08:13:32.988Z,8.48
2023-09-27T08:14:38.488Z,9.45
2023-09-27T08:15:42.318Z,10.25
2023-09-27T08:16:45.760Z,10.93
2023-09-27T08:17:49.615Z,8.10
2023-09-27T08:18:52.180Z,8.80
2023-09-27T08:19:55.025Z,11.82
2023-09-27T08:20:57.279Z,7.15
2023-09-27T08:21:59.564Z,7.57
2023-09-27T08:23:02.923Z,12.73
2023-09-27T08:24:05.624Z,8.90
2023-09-27T08:25:15.156Z,8.57
2023-09-27T08:26:17.465Z,11.27
2023-09-27T08:27:19.723Z,9.23
2023-09-27T08:28:22.588Z,11.02
2023-09-27T08:29:26.947Z,7.55
2023-09-27T08:30:29.997Z,12.18
2023-09-27T08:31:36.016Z,13.30
2023-09-27T08:32:39.815Z,8.05
2023-09-27T08:33:42.411Z,6.45
2023-09-27T08:34:44.613Z,6.70
2023-09-27T08:35:51.355Z,11.15
2023-09-27T08:36:53.689Z,8.45
2023-09-27T08:37:55.963Z,7.90
2023-09-27T08:38:58.475Z,6.95
2023-09-27T08:40:00.669Z,8.45
2023-09-27T08:41:04.973Z,10.85
2023-09-27T08:42:07.270Z,8.38
2023-09-27T08:43:11.769Z,8.52
2023-09-27T08:44:14.196Z,8.77
2023-09-27T08:45:20.029Z,11.63
2023-09-27T08:46:24.816Z,8.70
2023-09-27T08:47:28.392Z,6.38
2023-09-27T08:48:32.167Z,7.82
2023-09-27T08:49:35.528Z,5.20
2023-09-27T08:50:38.427Z,7.93
2023-09-27T08:51:43.307Z,8.13
2023-09-27T08:52:47.901Z,7.32
2023-09-27T08:53:50.749Z,6.47
2023-09-27T08:54:53.993Z,7.97
2023-09-27T08:55:57.428Z,6.47
2023-09-27T08:57:00.137Z,7.68
2023-09-27T08:58:03.385Z,6.47
2023-09-27T08:59:06.745Z,10.00
2023-09-27T09:00:14.893Z,5.78
2023-09-27T09:01:17.917Z,5.28
2023-09-27T09:02:22.847Z,9.85
2023-09-27T09:03:26.369Z,7.40
2023-09-27T09:04:28.760Z,8.20
2023-09-27T09:05:31.808Z,8.57
2023-09-27T09:06:35.099Z,5.35
2023-09-27T09:07:37.450Z,5.90
2023-09-27T09:08:44.250Z,8.75
2023-09-27T09:09:47.206Z,5.38
2023-09-27T09:10:49.426Z,6.38
2023-09-27T09:11:56.046Z,5.97
2023-09-27T09:13:00.728Z,7.55
2023-09-27T09:14:06.383Z,8.23
2023-09-27T09:15:15.800Z,5.88
2023-09-27T09:16:24.442Z,11.75
2023-09-27T09:17:37.366Z,5.57
2023-09-27T09:18:40.870Z,5.55
2023-09-27T09:19:45.612Z,5.40
2023-09-27T09:20:52.805Z,7.15
2023-09-27T09:21:59.436Z,7.07
2023-09-27T09:23:08.072Z,5.97
2023-09-27T09:24:21.597Z,5.28
2023-09-27T09:25:24.816Z,6.00
2023-09-27T09:26:31.601Z,8.48
2023-09-27T09:27:34.167Z,7.55
2023-09-27T09:28:57.625Z,11.65
2023-09-27T09:30:03.068Z,6.00
2023-09-27T09:31:05.935Z,10.35
2023-09-27T09:32:09.794Z,7.57
2023-09-27T09:33:22.286Z,7.93
2023-09-27T09:35:33.006Z,5.97
2023-09-27T09:36:36.605Z,8.18
2023-09-27T09:37:42.276Z,8.10
2023-09-27T09:38:44.589Z,12.85
2023-09-27T09:39:48.136Z,5.25
2023-09-27T09:40:58.282Z,7.53
2023-09-27T09:42:03.600Z,6.43
2023-09-27T09:43:05.859Z,7.10
2023-09-27T09:44:21.276Z,6.82
2023-09-27T09:45:24.267Z,6.30
2023-09-27T09:46:26.718Z,8.43
2023-09-27T09:47:31.271Z,7.88
2023-09-27T09:48:35.224Z,5.55
2023-09-27T09:49:37.605Z,6.20
2023-09-27T09:50:41.126Z,6.05
2023-09-27T09:51:48.160Z,4.25
2023-09-27T09:52:58.517Z,6.60
2023-09-27T09:54:04.455Z,4.85
2023-09-27T09:55:20.086Z,5.68
2023-09-27T09:56:43.020Z,5.28
2023-09-27T09:57:59.498Z,10.55
2023-09-27T09:59:08.181Z,9.90
2023-09-27T10:00:31.232Z,8.32
2023-09-27T10:01:38.714Z,9.48
2023-09-27T10:02:52.531Z,8.48
2023-09-27T10:03:56.517Z,7.22
2023-09-27T10:05:00.429Z,4.63
2023-09-27T10:06:03.368Z,6.57
2023-09-27T10:07:06.196Z,12.65
2023-09-27T10:08:09.023Z,4.70
2023-09-27T10:09:16.611Z,4.85
2023-09-27T10:10:20.339Z,5.22
2023-09-27T10:11:24.441Z,6.40
2023-09-27T10:12:27.435Z,7.85
2023-09-27T10:13:29.871Z,5.47
2023-09-27T10:14:32.507Z,4.38
2023-09-27T10:15:35.475Z,4.50
2023-09-27T10:16:38.924Z,3.22
2023-09-27T10:17:41.417Z,10.52
2023-09-27T10:18:43.826Z,4.13
2023-09-27T10:20:13.918Z,9.63
2023-09-27T10:21:17.120Z,4.15
2023-09-27T10:22:27.001Z,6.78
2023-09-27T10:23:48.000Z,4.72
2023-09-27T10:24:50.319Z,3.80
2023-09-27T10:25:52.552Z,5.35
2023-09-27T10:26:55.430Z,3.88
2023-09-27T10:28:13.261Z,4.15
2023-09-27T10:29:17.945Z,9.75
2023-09-27T10:30:20.259Z,6.43
2023-09-27T10:31:22.537Z,6.53
2023-09-27T10:32:24.974Z,6.00
2023-09-27T10:33:27.336Z,5.93
2023-09-27T10:34:29.554Z,3.47
2023-09-27T10:35:34.132Z,4.35
2023-09-27T10:36:36.673Z,3.15
2023-09-27T10:37:59.525Z,7.47
2023-09-27T10:39:03.319Z,5.05
2023-09-27T10:40:19.509Z,6.05
2023-09-27T10:41:33.958Z,4.38
2023-09-27T10:42:45.039Z,5.57
2023-09-27T10:43:47.332Z,3.50
2023-09-27T10:44:51.368Z,2.67
2023-09-27T10:45:57.325Z,7.03
2023-09-27T10:47:04.725Z,5.30
2023-09-27T10:48:19.006Z,6.18
2023-09-27T10:49:23.388Z,4.18
2023-09-27T10:50:30.465Z,3.67
2023-09-27T10:51:33.523Z,3.47
2023-09-27T10:52:38.209Z,4.97
2023-09-27T10:53:40.547Z,4.60
2023-09-27T10:54:43.109Z,7.50
2023-09-27T10:55:45.574Z,4.75
2023-09-27T10:56:53.857Z,4.68
2023-09-27T10:57:56.701Z,4.65
2023-09-27T10:58:59.114Z,4.95
2023-09-27T11:00:01.416Z,6.68
2023-09-27T11:01:05.908Z,4.75
2023-09-27T11:02:08.356Z,4.43
2023-09-27T11:03:18.033Z,4.03
2023-09-27T11:04:24.400Z,3.85
2023-09-27T11:05:27.089Z,4.93
2023-09-27T11:06:30.457Z,3.45
2023-09-27T11:07:51.470Z,5.32
2023-09-27T11:09:07.639Z,4.55
2023-09-27T11:10:10.073Z,5.25
2023-09-27T11:11:15.505Z,3.40
2023-09-27T11:12:24.061Z,3.35
2023-09-27T11:13:30.578Z,2.97
2023-09-27T11:14:34.354Z,6.30
2023-09-27T11:15:38.084Z,5.43
2023-09-27T11:16:40.756Z,4.90
2023-09-27T11:17:43.105Z,4.90
2023-09-27T11:18:46.949Z,3.58
2023-09-27T11:19:50.041Z,6.78
2023-09-27T11:20:52.310Z,6.65
2023-09-27T11:21:54.908Z,5.03
2023-09-27T11:23:02.682Z,4.55
2023-09-27T11:24:05.105Z,3.65
2023-09-27T11:25:26.268Z,5.45
2023-09-27T11:26:30.601Z,4.18
2023-09-27T11:27:33.964Z,4.57
2023-09-27T11:28:36.359Z,3.78
2023-09-27T11:29:38.690Z,3.75
2023-09-27T11:30:41.077Z,4.05
2023-09-27T11:31:43.334Z,2.78
2023-09-27T11:32:51.767Z,5.05
2023-09-27T11:33:54.291Z,4.43
2023-09-27T11:34:57.991Z,6.30
2023-09-27T11:36:05.497Z,4.40
2023-09-27T11:37:18.003Z,5.40
2023-09-27T11:39:47.056Z,3.25
2023-09-27T11:40:49.978Z,2.80
2023-09-27T11:41:57.673Z,2.75
2023-09-27T11:42:59.881Z,5.15
2023-09-27T11:44:22.723Z,5.35
2023-09-27T11:46:31.760Z,4.60
2023-09-27T11:47:45.938Z,2.72
2023-09-27T11:48:48.190Z,1.88
2023-09-27T11:49:50.434Z,4.95
2023-09-27T11:50:53.065Z,3.08
2023-09-27T11:51:55.373Z,2.50
2023-09-27T11:52:57.651Z,2.35
2023-09-27T11:53:59.998Z,3.67
2023-09-27T11:55:02.254Z,2.15
2023-09-27T11:56:04.651Z,2.30
2023-09-27T11:57:06.858Z,2.67
2023-09-27T11:58:09.631Z,2.47
2023-09-27T11:59:11.958Z,3.58
2023-09-27T12:00:16.435Z,5.07
2023-09-27T12:01:18.740Z,5.10
2023-09-27T12:02:28.232Z,4.38
2023-09-27T12:03:33.368Z,2.17
2023-09-27T12:04:36.010Z,3.83
2023-09-27T12:05:39.169Z,3.80
2023-09-27T12:06:41.867Z,3.30
2023-09-27T12:07:45.173Z,3.30
2023-09-27T12:08:47.582Z,2.65
2023-09-27T12:09:49.868Z,4.65
2023-09-27T12:10:52.249Z,4.97
2023-09-27T12:11:54.660Z,2.30
2023-09-27T12:12:57.066Z,3.58
2023-09-27T12:13:59.305Z,3.05
2023-09-27T12:15:04.607Z,2.83
2023-09-27T12:16:07.801Z,2.83
2023-09-27T12:17:10.396Z,2.15
2023-09-27T12:18:12.674Z,4.82
2023-09-27T12:19:15.174Z,4.70
2023-09-27T12:20:36.051Z,5.60
2023-09-27T12:21:39.256Z,4.03
2023-09-27T12:22:41.955Z,3.60
2023-09-27T12:23:45.696Z,2.13
2023-09-27T12:24:48.464Z,4.65
2023-09-27T12:25:50.814Z,4.25
2023-09-27T12:26:53.079Z,5.43
2023-09-27T12:27:55.298Z,5.13
2023-09-27T12:28:57.737Z,6.57
2023-09-27T12:30:00.375Z,4.82
2023-09-27T12:31:02.618Z,5.82
2023-09-27T12:32:05.379Z,4.40
2023-09-27T12:33:07.742Z,3.30
2023-09-27T12:34:10.038Z,5.43
2023-09-27T12:35:12.281Z,5.03
2023-09-27T12:36:14.620Z,3.65
2023-09-27T12:37:16.811Z,3.47
2023-09-27T12:38:19.147Z,7.03
2023-09-27T12:39:22.084Z,3.28
2023-09-27T12:40:25.409Z,5.03
2023-09-27T12:41:27.849Z,4.05
2023-09-27T12:42:30.660Z,3.53
2023-09-27T12:43:32.934Z,5.60
2023-09-27T12:44:35.248Z,2.95
2023-09-27T12:45:38.812Z,4.78
2023-09-27T12:46:41.757Z,2.72
2023-09-27T12:47:44.065Z,3.35
2023-09-27T12:48:46.621Z,3.60
2023-09-27T12:49:48.823Z,10.80
2023-09-27T12:50:51.143Z,3.30
2023-09-27T12:51:53.490Z,3.70
2023-09-27T12:52:56.223Z,6.75
2023-09-27T12:53:58.558Z,7.13
2023-09-27T12:55:00.754Z,3.42
2023-09-27T12:56:07.321Z,3.28
2023-09-27T12:57:09.573Z,2.45
2023-09-27T12:58:14.214Z,3.28
2023-09-27T12:59:16.540Z,3.28
2023-09-27T13:00:19.045Z,3.65
2023-09-27T13:01:21.763Z,2.90
2023-09-27T13:02:24.071Z,2.25
2023-09-27T13:03:26.425Z,3.15
2023-09-27T13:04:28.994Z,5.07
2023-09-27T13:05:31.288Z,4.43
2023-09-27T13:06:33.563Z,8.32
2023-09-27T13:07:35.837Z,3.78
2023-09-27T13:08:38.199Z,5.95
2023-09-27T13:09:40.661Z,5.55
2023-09-27T13:10:43.223Z,4.38
2023-09-27T13:11:45.588Z,2.63
2023-09-27T13:12:48.449Z,4.50
2023-09-27T13:13:50.620Z,4.32
2023-09-27T13:14:52.840Z,4.97
2023-09-27T13:15:55.245Z,3.15
2023-09-27T13:16:57.561Z,3.78
2023-09-27T13:18:00.005Z,2.53
2023-09-27T13:19:02.257Z,2.85
2023-09-27T13:20:09.706Z,4.35
2023-09-27T13:21:11.878Z,3.38
2023-09-27T13:22:14.132Z,3.92
2023-09-27T13:23:16.412Z,7.32
2023-09-27T13:24:18.754Z,3.17
2023-09-27T13:25:21.045Z,4.07
2023-09-27T13:26:23.285Z,5.15
2023-09-27T13:27:25.524Z,5.30
2023-09-27T13:28:27.738Z,5.05
2023-09-27T13:29:30.121Z,5.35
2023-09-27T13:30:36.511Z,2.42
2023-09-27T13:31:39.152Z,5.47
2023-09-27T13:32:41.726Z,5.47
2023-09-27T13:33:49.017Z,4.55
2023-09-27T13:34:57.417Z,5.35
2023-09-27T13:36:02.776Z,6.72
2023-09-27T13:37:06.062Z,3.17
2023-09-27T13:38:09.520Z,2.40
2023-09-27T13:39:15.467Z,2.20
2023-09-27T13:40:17.828Z,1.95
2023-09-27T13:41:20.673Z,5.20
2023-09-27T13:42:23.273Z,2.83
2023-09-27T13:43:25.740Z,2.17
2023-09-27T13:44:28.074Z,4.82
2023-09-27T13:45:30.549Z,3.42
2023-09-27T13:46:33.006Z,1.95
2023-09-27T13:47:36.235Z,2.40
2023-09-27T13:48:38.591Z,2.85
2023-09-27T13:49:40.930Z,4.22
2023-09-27T13:50:43.136Z,2.97
2023-09-27T13:51:45.492Z,3.58
2023-09-27T13:52:47.877Z,2.95
2023-09-27T13:53:50.145Z,3.60
2023-09-27T13:54:52.465Z,3.45
2023-09-27T13:55:54.839Z,2.72
2023-09-27T13:56:57.274Z,4.60
2023-09-27T13:57:59.626Z,3.15
2023-09-27T13:59:01.932Z,2.85
2023-09-27T14:00:05.585Z,3.63
2023-09-27T14:01:10.785Z,4.30
2023-09-27T14:02:15.672Z,3.42
2023-09-27T14:03:18.542Z,2.15
2023-09-27T14:04:20.961Z,3.47
2023-09-27T14:05:23.341Z,3.40
2023-09-27T14:06:26.328Z,1.85